createdAt,value
2018-06-17T00:00:42.284Z,0.00
2018-06-17T00:02:35.071Z,0.00
2018-06-17T00:03:34.998Z,0.00
2018-06-17T00:05:27.787Z,0.00
2018-06-17T00:06:27.708Z,0.00
2018-06-17T00:08:20.527Z,0.00
2018-06-17T00:09:20.439Z,0.00
2018-06-17T00:11:13.235Z,0.00
2018-06-17T00:12:13.175Z,0.00
2018-06-17T00:14:06.056Z,0.00
2018-06-17T00:15:05.980Z,0.00
2018-06-17T00:16:58.779Z,0.00
2018-06-17T00:17:58.719Z,0.00
2018-06-17T00:19:51.555Z,0.00
2018-06-17T00:20:51.474Z,0.00
2018-06-17T00:22:44.238Z,0.00
2018-06-17T00:23:44.180Z,0.00
2018-06-17T00:25:36.963Z,0.00
2018-06-17T00:26:36.901Z,0.00
2018-06-17T00:28:29.684Z,0.00
2018-06-17T00:29:29.620Z,0.00
2018-06-17T00:31:22.399Z,0.00
2018-06-17T00:32:22.350Z,0.00
2018-06-17T00:34:15.137Z,0.00
2018-06-17T00:35:15.066Z,0.00
2018-06-17T00:37:07.837Z,0.00
2018-06-17T00:38:07.799Z,0.00
2018-06-17T00:40:00.597Z,0.00
2018-06-17T00:41:00.507Z,0.00
2018-06-17T00:42:53.274Z,0.00
2018-06-17T00:43:53.214Z,0.00
2018-06-17T00:45:46.059Z,0.00
2018-06-17T00:46:45.991Z,0.00
2018-06-17T00:48:38.753Z,0.00
2018-06-17T00:49:38.697Z,0.00
2018-06-17T00:51:31.501Z,0.00
2018-06-17T00:52:31.434Z,0.00
2018-06-17T00:54:24.237Z,0.00
2018-06-17T00:55:24.145Z,0.00
2018-06-17T00:57:16.921Z,0.00
2018-06-17T00:58:16.867Z,0.00
2018-06-17T01:00:09.689Z,0.00
2018-06-17T01:01:09.586Z,0.00
2018-06-17T01:03:02.405Z,0.00
2018-06-17T01:04:02.293Z,0.00
2018-06-17T01:05:55.120Z,0.00
2018-06-17T01:06:55.042Z,0.00
2018-06-17T01:08:47.824Z,0.00
2018-06-17T01:09:47.766Z,0.00
2018-06-17T01:11:40.556Z,0.00
2018-06-17T01:12:40.483Z,0.00
2018-06-17T01:14:33.269Z,0.00
2018-06-17T01:15:33.196Z,0.00
2018-06-17T01:17:25.992Z,0.00
2018-06-17T01:18:25.914Z,0.00
2018-06-17T01:20:18.732Z,0.00
2018-06-17T01:21:18.644Z,0.00
2018-06-17T01:23:11.431Z,0.00
2018-06-17T01:24:11.371Z,0.00
2018-06-17T01:26:04.172Z,0.00
2018-06-17T01:27:04.092Z,0.00
2018-06-17T01:28:56.886Z,0.00
2018-06-17T01:29:56.829Z,0.00
2018-06-17T01:31:49.637Z,0.00
2018-06-17T01:32:49.553Z,0.00
2018-06-17T01:34:42.351Z,0.00
2018-06-17T01:35:42.304Z,0.00
2018-06-17T01:37:35.095Z,0.00
2018-06-17T01:38:35.014Z,0.00
2018-06-17T01:40:27.855Z,0.00
2018-06-17T01:41:27.824Z,0.00
2018-06-17T01:43:20.538Z,0.00
2018-06-17T01:44:20.478Z,0.00
2018-06-17T01:46:13.768Z,0.00
2018-06-17T01:47:13.682Z,0.00
2018-06-17T01:49:06.474Z,0.00
2018-06-17T01:50:06.414Z,0.00
2018-06-17T01:51:59.227Z,0.00
2018-06-17T01:52:59.148Z,0.00
2018-06-17T01:54:51.942Z,0.00
2018-06-17T01:55:51.871Z,0.00
2018-06-17T01:57:44.685Z,0.00
2018-06-17T01:58:44.601Z,0.00
2018-06-17T02:00:37.433Z,0.00
2018-06-17T02:01:37.406Z,0.00
2018-06-17T02:03:30.145Z,0.00
2018-06-17T02:04:30.075Z,0.00
2018-06-17T02:06:23.237Z,0.00
2018-06-17T02:07:23.164Z,0.00
2018-06-17T02:09:15.992Z,0.00
2018-06-17T02:10:15.889Z,0.00
2018-06-17T02:12:08.675Z,0.00
2018-06-17T02:13:08.607Z,0.00
2018-06-17T02:15:01.418Z,0.00
2018-06-17T02:16:01.354Z,0.00
2018-06-17T02:17:54.144Z,0.00
2018-06-17T02:18:54.078Z,0.00
2018-06-17T02:20:46.892Z,0.00
2018-06-17T02:21:46.806Z,0.00
2018-06-17T02:23:39.611Z,0.00
2018-06-17T02:24:39.534Z,0.00
2018-06-17T02:26:32.332Z,0.00
2018-06-17T02:27:32.276Z,0.00
2018-06-17T02:29:25.050Z,0.00
2018-06-17T02:30:24.982Z,0.00
2018-06-17T02:32:17.773Z,0.00
2018-06-17T02:33:17.704Z,0.00
2018-06-17T02:35:10.470Z,0.00
2018-06-17T02:36:10.417Z,0.00
2018-06-17T02:38:03.199Z,0.00
2018-06-17T02:39:03.121Z,0.00
2018-06-17T02:40:55.909Z,0.00
2018-06-17T02:41:55.837Z,0.00
2018-06-17T02:43:48.631Z,0.00
2018-06-17T02:44:48.552Z,0.00
2018-06-17T02:46:41.327Z,0.00
2018-06-17T02:47:41.267Z,0.00
2018-06-17T02:49:34.048Z,0.00
2018-06-17T02:50:33.979Z,0.00
2018-06-17T02:52:26.767Z,0.00
2018-06-17T02:53:26.702Z,0.00
2018-06-17T02:55:19.500Z,0.00
2018-06-17T02:56:19.425Z,0.00
2018-06-17T02:58:12.218Z,0.00
2018-06-17T02:59:12.156Z,0.00
2018-06-17T03:01:04.956Z,0.00
2018-06-17T03:02:04.888Z,0.00
2018-06-17T03:03:57.768Z,5.63
2018-06-17T03:04:57.619Z,5.63
2018-06-17T03:06:50.397Z,5.63
2018-06-17T03:07:50.334Z,5.63
2018-06-17T03:09:43.116Z,5.63
2018-06-17T03:10:43.061Z,5.63
2018-06-17T03:12:35.819Z,5.63
2018-06-17T03:13:35.756Z,5.63
2018-06-17T03:15:28.543Z,5.63
2018-06-17T03:16:28.467Z,5.63
2018-06-17T03:18:21.263Z,5.63
2018-06-17T03:19:21.188Z,5.63
2018-06-17T03:21:13.964Z,5.63
2018-06-17T03:22:13.905Z,11.25
2018-06-17T03:24:06.694Z,11.25
2018-06-17T03:25:06.622Z,11.25
2018-06-17T03:26:59.389Z,11.25
2018-06-17T03:27:59.335Z,11.25
2018-06-17T03:29:52.125Z,11.25
2018-06-17T03:30:52.056Z,11.25
2018-06-17T03:32:44.829Z,11.25
2018-06-17T03:33:44.791Z,11.25
2018-06-17T03:35:37.550Z,11.25
2018-06-17T03:36:37.477Z,16.88
2018-06-17T03:38:30.275Z,16.88
2018-06-17T03:39:30.207Z,16.88
2018-06-17T03:41:22.987Z,16.88
2018-06-17T03:42:22.929Z,16.88
2018-06-17T03:44:15.719Z,16.88
2018-06-17T03:45:15.631Z,16.88
2018-06-17T03:47:08.404Z,16.88
2018-06-17T03:48:08.352Z,16.88
2018-06-17T03:50:01.131Z,22.50
2018-06-17T03:51:01.069Z,22.50
2018-06-17T03:52:53.838Z,22.50
2018-06-17T03:53:53.781Z,22.50
2018-06-17T03:55:46.567Z,22.50
2018-06-17T03:56:46.491Z,22.50
2018-06-17T03:58:39.289Z,22.50
2018-06-17T03:59:39.224Z,22.50
2018-06-17T04:01:32.037Z,28.13
2018-06-17T04:02:31.947Z,28.13
2018-06-17T04:04:24.746Z,28.13
2018-06-17T04:05:24.675Z,28.13
2018-06-17T04:07:17.559Z,28.13
2018-06-17T04:08:17.468Z,28.13
2018-06-17T04:10:10.325Z,28.13
2018-06-17T04:11:10.253Z,28.13
2018-06-17T04:13:03.040Z,33.75
2018-06-17T04:14:02.982Z,33.75
2018-06-17T04:15:55.806Z,33.75
2018-06-17T04:16:55.727Z,33.75
2018-06-17T04:18:48.531Z,39.38
2018-06-17T04:19:48.470Z,39.38
2018-06-17T04:21:41.310Z,45.00
2018-06-17T04:22:41.229Z,45.00
2018-06-17T04:24:34.022Z,45.00
2018-06-17T04:25:34.031Z,45.00
2018-06-17T04:27:26.745Z,45.00
2018-06-17T04:28:26.677Z,45.00
2018-06-17T04:30:19.522Z,45.00
2018-06-17T04:31:19.435Z,45.00
2018-06-17T04:33:12.216Z,45.00
2018-06-17T04:34:12.156Z,50.63
2018-06-17T04:36:04.987Z,50.63
2018-06-17T04:37:04.869Z,50.63
2018-06-17T04:38:57.666Z,56.25
2018-06-17T04:39:57.616Z,56.25
2018-06-17T04:41:50.403Z,61.88
2018-06-17T04:42:50.325Z,61.88
2018-06-17T04:44:43.104Z,61.88
2018-06-17T04:45:43.033Z,123.75
2018-06-17T04:47:35.851Z,365.63
2018-06-17T04:48:35.767Z,495.00
2018-06-17T04:50:28.566Z,607.50
2018-06-17T04:51:28.473Z,635.63
2018-06-17T04:53:21.278Z,601.88
2018-06-17T04:54:21.212Z,562.50
2018-06-17T04:56:14.066Z,534.38
2018-06-17T04:57:13.995Z,455.63
2018-06-17T04:59:06.834Z,511.88
2018-06-17T05:00:06.791Z,461.25
2018-06-17T05:01:59.589Z,433.13
2018-06-17T05:02:59.522Z,444.38
2018-06-17T05:04:52.309Z,393.75
2018-06-17T05:05:52.260Z,365.63
2018-06-17T05:07:45.090Z,376.88
2018-06-17T05:08:45.050Z,365.63
2018-06-17T05:10:37.808Z,348.75
2018-06-17T05:11:37.721Z,326.25
2018-06-17T05:13:30.515Z,315.00
2018-06-17T05:14:30.462Z,303.75
2018-06-17T05:16:23.270Z,315.00
2018-06-17T05:17:23.221Z,315.00
2018-06-17T05:19:16.013Z,298.13
2018-06-17T05:20:16.049Z,286.88
2018-06-17T05:22:08.774Z,275.63
2018-06-17T05:23:08.692Z,264.38
2018-06-17T05:25:01.554Z,286.88
2018-06-17T05:26:01.423Z,140.63
2018-06-17T05:27:54.255Z,163.13
2018-06-17T05:28:54.165Z,253.13
2018-06-17T05:30:46.967Z,264.38
2018-06-17T05:31:46.926Z,270.00
2018-06-17T05:33:39.809Z,275.63
2018-06-17T05:34:39.660Z,275.63
2018-06-17T05:36:32.465Z,270.00
2018-06-17T05:37:32.400Z,264.38
2018-06-17T05:39:25.214Z,270.00
2018-06-17T05:40:25.169Z,264.38
2018-06-17T05:42:18.176Z,264.38
2018-06-17T05:43:18.098Z,258.75
2018-06-17T05:45:10.941Z,258.75
2018-06-17T05:46:10.859Z,264.38
2018-06-17T05:48:03.655Z,264.38
2018-06-17T05:49:03.623Z,270.00
2018-06-17T05:50:56.407Z,270.00
2018-06-17T05:51:56.334Z,270.00
2018-06-17T05:53:49.124Z,270.00
2018-06-17T05:54:49.092Z,275.63
2018-06-17T05:56:41.887Z,275.63
2018-06-17T05:57:41.812Z,275.63
2018-06-17T05:59:34.617Z,275.63
2018-06-17T06:00:34.570Z,275.63
2018-06-17T06:02:27.360Z,275.63
2018-06-17T06:03:27.299Z,281.25
2018-06-17T06:05:20.097Z,281.25
2018-06-17T06:06:20.043Z,281.25
2018-06-17T06:08:12.892Z,286.88
2018-06-17T06:09:12.821Z,286.88
2018-06-17T06:11:05.683Z,298.13
2018-06-17T06:12:05.700Z,303.75
2018-06-17T06:13:58.386Z,315.00
2018-06-17T06:14:58.319Z,320.63
2018-06-17T06:16:51.186Z,281.25
2018-06-17T06:17:51.071Z,264.38
2018-06-17T06:19:43.859Z,241.88
2018-06-17T06:20:43.826Z,230.63
2018-06-17T06:22:36.632Z,213.75
2018-06-17T06:23:36.562Z,208.13
2018-06-17T06:25:29.371Z,202.50
2018-06-17T06:26:29.318Z,202.50
2018-06-17T06:28:22.142Z,202.50
2018-06-17T06:29:22.112Z,202.50
2018-06-17T06:31:14.908Z,185.63
2018-06-17T06:32:14.903Z,174.38
2018-06-17T06:34:07.698Z,174.38
2018-06-17T06:35:07.587Z,168.75
2018-06-17T06:37:00.383Z,163.13
2018-06-17T06:38:00.332Z,163.13
2018-06-17T06:39:53.156Z,163.13
2018-06-17T06:40:53.095Z,157.50
2018-06-17T06:42:45.942Z,157.50
2018-06-17T06:43:45.867Z,157.50
2018-06-17T06:45:38.744Z,157.50
2018-06-17T06:46:38.610Z,157.50
2018-06-17T06:48:31.489Z,157.50
2018-06-17T06:49:31.408Z,151.88
2018-06-17T06:51:24.815Z,151.88
2018-06-17T06:52:24.760Z,151.88
2018-06-17T06:54:18.210Z,151.88
2018-06-17T06:55:18.048Z,151.88
2018-06-17T06:57:10.892Z,151.88
2018-06-17T06:58:10.800Z,151.88
2018-06-17T07:00:05.131Z,151.88
2018-06-17T07:01:06.847Z,151.88
2018-06-17T07:02:58.037Z,151.88
2018-06-17T07:03:58.457Z,146.25
2018-06-17T07:05:50.698Z,146.25
2018-06-17T07:06:50.664Z,146.25
2018-06-17T07:08:43.502Z,146.25
2018-06-17T07:09:43.442Z,151.88
2018-06-17T07:11:36.261Z,146.25
2018-06-17T07:12:36.237Z,146.25
2018-06-17T07:14:29.025Z,146.25
2018-06-17T07:15:28.951Z,146.25
2018-06-17T07:17:21.777Z,146.25
2018-06-17T07:18:21.713Z,146.25
2018-06-17T07:20:14.530Z,146.25
2018-06-17T07:21:14.461Z,146.25
2018-06-17T07:23:07.258Z,146.25
2018-06-17T07:24:07.205Z,146.25
2018-06-17T07:26:00.031Z,146.25
2018-06-17T07:26:59.957Z,146.25
2018-06-17T07:28:52.774Z,146.25
2018-06-17T07:29:52.708Z,146.25
2018-06-17T07:31:45.510Z,146.25
2018-06-17T07:32:45.517Z,140.63
2018-06-17T07:34:38.263Z,146.25
2018-06-17T07:35:38.177Z,146.25
2018-06-17T07:37:30.980Z,146.25
2018-06-17T07:38:30.960Z,146.25
2018-06-17T07:40:23.806Z,151.88
2018-06-17T07:41:23.731Z,151.88
2018-06-17T07:43:16.528Z,151.88
2018-06-17T07:44:16.477Z,101.25
2018-06-17T07:46:09.293Z,135.00
2018-06-17T07:47:09.211Z,151.88
2018-06-17T07:49:02.004Z,146.25
2018-06-17T07:50:01.945Z,146.25
2018-06-17T07:51:54.796Z,146.25
2018-06-17T07:52:54.745Z,146.25
2018-06-17T07:54:47.524Z,146.25
2018-06-17T07:55:47.465Z,146.25
2018-06-17T07:57:40.282Z,146.25
2018-06-17T07:58:40.232Z,146.25
2018-06-17T08:00:33.020Z,151.88
2018-06-17T08:01:32.944Z,146.25
2018-06-17T08:03:25.789Z,151.88
2018-06-17T08:04:25.738Z,151.88
2018-06-17T08:06:18.547Z,151.88
2018-06-17T08:07:18.511Z,151.88
2018-06-17T08:09:11.276Z,140.63
2018-06-17T08:10:11.229Z,123.75
2018-06-17T08:12:04.055Z,129.38
2018-06-17T08:13:03.978Z,151.88
2018-06-17T08:14:56.804Z,123.75
2018-06-17T08:15:56.751Z,140.63
2018-06-17T08:17:49.568Z,157.50
2018-06-17T08:18:49.488Z,151.88
2018-06-17T08:20:42.287Z,157.50
2018-06-17T08:21:42.228Z,163.13
2018-06-17T08:23:35.060Z,135.00
2018-06-17T08:24:34.991Z,146.25
2018-06-17T08:26:27.844Z,151.88
2018-06-17T08:27:27.775Z,151.88
2018-06-17T08:29:20.582Z,151.88
2018-06-17T08:30:20.529Z,140.63
2018-06-17T08:32:13.372Z,135.00
2018-06-17T08:33:13.290Z,118.13
2018-06-17T08:35:06.088Z,84.38
2018-06-17T08:36:06.034Z,78.75
2018-06-17T08:37:58.871Z,129.38
2018-06-17T08:38:58.807Z,118.13
2018-06-17T08:40:51.689Z,118.13
2018-06-17T08:41:51.591Z,140.63
2018-06-17T08:43:44.392Z,163.13
2018-06-17T08:44:44.320Z,106.88
2018-06-17T08:46:37.128Z,129.38
2018-06-17T08:47:37.068Z,157.50
2018-06-17T08:49:29.956Z,73.13
2018-06-17T08:50:29.879Z,101.25
2018-06-17T08:52:22.737Z,90.00
2018-06-17T08:53:22.665Z,95.63
2018-06-17T08:55:15.474Z,123.75
2018-06-17T08:56:15.447Z,95.63
2018-06-17T08:58:08.237Z,78.75
2018-06-17T08:59:08.152Z,67.50
2018-06-17T09:01:00.952Z,90.00
2018-06-17T09:02:00.936Z,95.63
2018-06-17T09:03:53.767Z,163.13
2018-06-17T09:04:53.626Z,157.50
2018-06-17T09:06:46.489Z,151.88
2018-06-17T09:07:46.440Z,146.25
2018-06-17T09:09:39.306Z,146.25
2018-06-17T09:10:39.249Z,146.25
2018-06-17T09:12:32.021Z,84.38
2018-06-17T09:13:31.953Z,140.63
2018-06-17T09:15:24.830Z,151.88
2018-06-17T09:16:24.833Z,78.75
2018-06-17T09:18:17.583Z,140.63
2018-06-17T09:19:17.550Z,140.63
2018-06-17T09:21:10.313Z,135.00
2018-06-17T09:22:10.244Z,129.38
2018-06-17T09:24:03.059Z,135.00
2018-06-17T09:25:02.999Z,129.38
2018-06-17T09:26:55.787Z,129.38
2018-06-17T09:27:55.734Z,129.38
2018-06-17T09:29:48.554Z,129.38
2018-06-17T09:30:48.487Z,129.38
2018-06-17T09:32:41.282Z,129.38
2018-06-17T09:33:41.224Z,129.38
2018-06-17T09:35:34.028Z,129.38
2018-06-17T09:36:33.954Z,129.38
2018-06-17T09:38:26.766Z,129.38
2018-06-17T09:39:26.701Z,129.38
2018-06-17T09:41:19.520Z,123.75
2018-06-17T09:42:19.461Z,129.38
2018-06-17T09:44:12.336Z,123.75
2018-06-17T09:45:12.301Z,123.75
2018-06-17T09:47:05.044Z,123.75
2018-06-17T09:48:05.032Z,123.75
2018-06-17T09:49:57.797Z,123.75
2018-06-17T09:50:57.724Z,123.75
2018-06-17T09:52:51.503Z,123.75
2018-06-17T09:53:51.458Z,123.75
2018-06-17T09:55:44.281Z,123.75
2018-06-17T09:56:44.246Z,123.75
2018-06-17T09:58:37.088Z,123.75
2018-06-17T09:59:37.029Z,123.75
2018-06-17T10:01:31.896Z,123.75
2018-06-17T10:02:31.754Z,123.75
2018-06-17T10:04:24.666Z,123.75
2018-06-17T10:05:24.557Z,118.13
2018-06-17T10:07:17.450Z,118.13
2018-06-17T10:08:17.375Z,118.13
2018-06-17T10:10:10.187Z,118.13
2018-06-17T10:11:10.127Z,118.13
2018-06-17T10:13:03.458Z,118.13
2018-06-17T10:14:03.381Z,118.13
2018-06-17T10:15:56.235Z,123.75
2018-06-17T10:16:56.158Z,118.13
2018-06-17T10:18:48.977Z,95.63
2018-06-17T10:19:48.904Z,84.38
2018-06-17T10:21:41.776Z,50.63
2018-06-17T10:22:41.761Z,50.63
2018-06-17T10:24:34.608Z,73.13
2018-06-17T10:25:34.526Z,84.38
2018-06-17T10:27:27.322Z,135.00
2018-06-17T10:28:27.256Z,73.13
2018-06-17T10:30:20.131Z,106.88
2018-06-17T10:31:20.061Z,129.38
2018-06-17T10:33:12.913Z,129.38
2018-06-17T10:34:12.830Z,61.88
2018-06-17T10:36:05.673Z,45.00
2018-06-17T10:37:05.581Z,45.00
2018-06-17T10:38:58.383Z,45.00
2018-06-17T10:39:58.314Z,45.00
2018-06-17T10:41:51.167Z,45.00
2018-06-17T10:42:51.073Z,56.25
2018-06-17T10:44:43.932Z,78.75
2018-06-17T10:45:43.853Z,118.13
2018-06-17T10:47:36.654Z,61.88
2018-06-17T10:48:36.573Z,56.25
2018-06-17T10:50:30.049Z,106.88
2018-06-17T10:51:29.879Z,118.13
2018-06-17T10:53:22.736Z,118.13
2018-06-17T10:54:22.799Z,56.25
2018-06-17T10:56:15.649Z,112.50
2018-06-17T10:57:15.439Z,112.50
2018-06-17T10:59:08.228Z,118.13
2018-06-17T11:00:08.155Z,101.25
2018-06-17T11:02:00.963Z,112.50
2018-06-17T11:03:00.893Z,112.50
2018-06-17T11:04:53.725Z,101.25
2018-06-17T11:05:53.654Z,101.25
2018-06-17T11:07:46.477Z,106.88
2018-06-17T11:08:46.426Z,112.50
2018-06-17T11:10:39.243Z,56.25
2018-06-17T11:11:39.180Z,106.88
2018-06-17T11:13:31.972Z,56.25
2018-06-17T11:14:31.932Z,50.63
2018-06-17T11:16:24.773Z,112.50
2018-06-17T11:17:24.649Z,123.75
2018-06-17T11:19:17.446Z,118.13
2018-06-17T11:20:17.393Z,67.50
2018-06-17T11:22:10.263Z,95.63
2018-06-17T11:23:10.157Z,73.13
2018-06-17T11:25:02.977Z,56.25
2018-06-17T11:26:02.912Z,78.75
2018-06-17T11:27:55.723Z,45.00
2018-06-17T11:28:55.659Z,78.75
2018-06-17T11:30:48.482Z,50.63
2018-06-17T11:31:48.412Z,45.00
2018-06-17T11:33:41.235Z,67.50
2018-06-17T11:34:41.179Z,67.50
2018-06-17T11:36:34.079Z,50.63
2018-06-17T11:37:34.010Z,73.13
2018-06-17T11:39:26.819Z,90.00
2018-06-17T11:40:26.744Z,45.00
2018-06-17T11:42:19.552Z,84.38
2018-06-17T11:43:19.492Z,39.38
2018-06-17T11:45:12.918Z,73.13
2018-06-17T11:46:12.859Z,39.38
2018-06-17T11:48:05.876Z,39.38
2018-06-17T11:49:05.628Z,39.38
2018-06-17T11:50:58.486Z,39.38
2018-06-17T11:51:58.352Z,39.38
2018-06-17T11:53:51.160Z,39.38
2018-06-17T11:54:51.097Z,33.75
2018-06-17T11:56:43.917Z,39.38
2018-06-17T11:57:43.842Z,45.00
2018-06-17T11:59:36.748Z,50.63
2018-06-17T12:00:36.624Z,45.00
2018-06-17T12:02:29.455Z,45.00
2018-06-17T12:03:29.383Z,78.75
2018-06-17T12:05:22.193Z,78.75
2018-06-17T12:06:22.133Z,73.13
2018-06-17T12:08:14.934Z,73.13
2018-06-17T12:09:14.940Z,73.13
2018-06-17T12:11:07.694Z,50.63
2018-06-17T12:12:07.619Z,39.38
2018-06-17T12:14:00.472Z,45.00
2018-06-17T12:15:00.392Z,45.00
2018-06-17T12:16:53.199Z,73.13
2018-06-17T12:17:53.113Z,73.13
2018-06-17T12:19:45.931Z,56.25
2018-06-17T12:20:45.869Z,39.38
2018-06-17T12:22:38.722Z,67.50
2018-06-17T12:23:38.647Z,67.50
2018-06-17T12:25:31.558Z,39.38
2018-06-17T12:26:31.440Z,39.38
2018-06-17T12:28:24.236Z,73.13
2018-06-17T12:29:24.167Z,50.63
2018-06-17T12:31:16.980Z,33.75
2018-06-17T12:32:16.923Z,33.75
2018-06-17T12:34:09.752Z,39.38
2018-06-17T12:35:09.675Z,45.00
2018-06-17T12:37:02.494Z,78.75
2018-06-17T12:38:02.424Z,56.25
2018-06-17T12:39:55.217Z,78.75
2018-06-17T12:40:55.143Z,78.75
2018-06-17T12:42:47.949Z,78.75
2018-06-17T12:43:47.880Z,56.25
2018-06-17T12:45:40.695Z,50.63
2018-06-17T12:46:40.624Z,67.50
2018-06-17T12:48:33.502Z,84.38
2018-06-17T12:49:33.403Z,61.88
2018-06-17T12:51:26.207Z,78.75
2018-06-17T12:52:26.201Z,39.38
2018-06-17T12:54:18.935Z,39.38
2018-06-17T12:55:18.872Z,84.38
2018-06-17T12:57:11.672Z,56.25
2018-06-17T12:58:11.620Z,56.25
2018-06-17T13:00:04.411Z,73.13
2018-06-17T13:01:04.354Z,73.13
2018-06-17T13:02:57.224Z,28.13
2018-06-17T13:03:57.127Z,45.00
2018-06-17T13:05:49.931Z,28.13
2018-06-17T13:06:49.868Z,28.13
2018-06-17T13:08:42.696Z,33.75
2018-06-17T13:09:42.617Z,39.38
2018-06-17T13:11:35.409Z,50.63
2018-06-17T13:12:35.363Z,50.63
2018-06-17T13:14:28.168Z,90.00
2018-06-17T13:15:28.099Z,84.38
2018-06-17T13:17:20.960Z,84.38
2018-06-17T13:18:20.841Z,56.25
2018-06-17T13:20:13.662Z,78.75
2018-06-17T13:21:13.629Z,78.75
2018-06-17T13:23:06.439Z,78.75
2018-06-17T13:24:06.419Z,78.75
2018-06-17T13:25:59.206Z,78.75
2018-06-17T13:26:59.125Z,78.75
2018-06-17T13:28:51.943Z,33.75
2018-06-17T13:29:51.874Z,78.75
2018-06-17T13:31:44.739Z,61.88
2018-06-17T13:32:44.672Z,56.25
2018-06-17T13:34:37.502Z,56.25
2018-06-17T13:35:37.429Z,50.63
2018-06-17T13:37:30.267Z,84.38
2018-06-17T13:38:30.210Z,84.38
2018-06-17T13:40:23.140Z,73.13
2018-06-17T13:41:23.061Z,78.75
2018-06-17T13:43:15.945Z,73.13
2018-06-17T13:44:15.883Z,45.00
2018-06-17T13:46:09.561Z,73.13
2018-06-17T13:47:09.509Z,73.13
2018-06-17T13:49:02.343Z,78.75
2018-06-17T13:50:02.258Z,78.75
2018-06-17T13:51:55.058Z,78.75
2018-06-17T13:52:54.991Z,78.75
2018-06-17T13:54:47.883Z,84.38
2018-06-17T13:55:47.771Z,78.75
2018-06-17T13:57:40.616Z,33.75
2018-06-17T13:58:40.548Z,61.88
2018-06-17T14:00:33.517Z,33.75
2018-06-17T14:01:33.543Z,45.00
2018-06-17T14:03:26.309Z,33.75
2018-06-17T14:04:26.189Z,33.75
2018-06-17T14:06:19.048Z,84.38
2018-06-17T14:07:19.055Z,73.13
2018-06-17T14:09:11.824Z,39.38
2018-06-17T14:10:11.752Z,84.38
2018-06-17T14:12:04.591Z,90.00
2018-06-17T14:13:04.501Z,90.00
2018-06-17T14:14:57.425Z,84.38
2018-06-17T14:15:57.310Z,84.38
2018-06-17T14:17:50.176Z,50.63
2018-06-17T14:18:50.168Z,84.38
2018-06-17T14:20:42.995Z,56.25
2018-06-17T14:21:42.907Z,90.00
2018-06-17T14:23:35.730Z,67.50
2018-06-17T14:24:35.692Z,90.00
2018-06-17T14:26:28.530Z,33.75
2018-06-17T14:27:28.459Z,33.75
2018-06-17T14:29:21.330Z,67.50
2018-06-17T14:30:21.255Z,56.25
2018-06-17T14:32:14.095Z,84.38
2018-06-17T14:33:14.031Z,90.00
2018-06-17T14:35:06.855Z,90.00
2018-06-17T14:36:06.798Z,90.00
2018-06-17T14:37:59.599Z,90.00
2018-06-17T14:38:59.537Z,78.75
2018-06-17T14:40:52.385Z,33.75
2018-06-17T14:41:52.321Z,28.13
2018-06-17T14:43:45.116Z,28.13
2018-06-17T14:44:45.042Z,28.13
2018-06-17T14:46:37.875Z,22.50
2018-06-17T14:47:37.833Z,28.13
2018-06-17T14:49:30.677Z,28.13
2018-06-17T14:50:30.597Z,28.13
2018-06-17T14:52:23.440Z,33.75
2018-06-17T14:53:23.405Z,33.75
2018-06-17T14:55:16.206Z,33.75
2018-06-17T14:56:16.139Z,33.75
2018-06-17T14:58:08.935Z,33.75
2018-06-17T14:59:08.861Z,33.75
2018-06-17T15:01:01.817Z,33.75
2018-06-17T15:02:01.691Z,33.75
2018-06-17T15:03:54.569Z,28.13
2018-06-17T15:04:54.413Z,28.13
2018-06-17T15:06:47.760Z,50.63
2018-06-17T15:07:47.708Z,61.88
2018-06-17T15:09:40.629Z,61.88
2018-06-17T15:10:40.518Z,50.63
2018-06-17T15:12:33.541Z,67.50
2018-06-17T15:13:33.442Z,61.88
2018-06-17T15:15:26.217Z,78.75
2018-06-17T15:16:26.159Z,78.75
2018-06-17T15:18:19.063Z,67.50
2018-06-17T15:19:18.949Z,56.25
2018-06-17T15:21:11.793Z,78.75
2018-06-17T15:22:11.718Z,61.88
2018-06-17T15:24:04.512Z,33.75
2018-06-17T15:25:04.449Z,33.75
2018-06-17T15:26:57.287Z,73.13
2018-06-17T15:27:57.205Z,78.75
2018-06-17T15:29:49.999Z,73.13
2018-06-17T15:30:49.971Z,61.88
2018-06-17T15:32:42.770Z,61.88
2018-06-17T15:33:42.687Z,73.13
2018-06-17T15:35:35.497Z,78.75
2018-06-17T15:36:35.454Z,78.75
2018-06-17T15:38:28.299Z,67.50
2018-06-17T15:39:28.232Z,84.38
2018-06-17T15:41:21.103Z,90.00
2018-06-17T15:42:20.993Z,90.00
2018-06-17T15:44:13.884Z,90.00
2018-06-17T15:45:13.712Z,90.00
2018-06-17T15:47:06.544Z,90.00
2018-06-17T15:48:06.525Z,90.00
2018-06-17T15:49:59.228Z,39.38
2018-06-17T15:50:59.195Z,33.75
2018-06-17T15:52:51.956Z,28.13
2018-06-17T15:53:51.908Z,28.13
2018-06-17T15:55:44.665Z,67.50
2018-06-17T15:56:44.608Z,28.13
2018-06-17T15:58:37.413Z,22.50
2018-06-17T15:59:37.336Z,67.50
2018-06-17T16:01:30.156Z,61.88
2018-06-17T16:02:30.100Z,84.38
2018-06-17T16:04:22.967Z,78.75
2018-06-17T16:05:22.882Z,28.13
2018-06-17T16:07:15.752Z,22.50
2018-06-17T16:08:15.687Z,22.50
2018-06-17T16:10:08.494Z,28.13
2018-06-17T16:11:08.432Z,22.50
2018-06-17T16:13:01.229Z,22.50
2018-06-17T16:14:01.145Z,22.50
2018-06-17T16:15:54.004Z,28.13
2018-06-17T16:16:53.944Z,33.75
2018-06-17T16:18:46.908Z,78.75
2018-06-17T16:19:46.713Z,73.13
2018-06-17T16:21:39.484Z,73.13
2018-06-17T16:22:39.476Z,39.38
2018-06-17T16:24:32.257Z,61.88
2018-06-17T16:25:32.179Z,67.50
2018-06-17T16:27:24.975Z,56.25
2018-06-17T16:28:24.928Z,61.88
2018-06-17T16:30:17.715Z,50.63
2018-06-17T16:31:17.656Z,50.63
2018-06-17T16:33:10.476Z,22.50
2018-06-17T16:34:10.395Z,50.63
2018-06-17T16:36:03.214Z,22.50
2018-06-17T16:37:03.107Z,28.13
2018-06-17T16:38:55.921Z,28.13
2018-06-17T16:39:55.848Z,28.13
2018-06-17T16:41:48.640Z,33.75
2018-06-17T16:42:48.586Z,45.00
2018-06-17T16:44:41.397Z,61.88
2018-06-17T16:45:41.315Z,56.25
2018-06-17T16:47:34.143Z,56.25
2018-06-17T16:48:34.098Z,56.25
2018-06-17T16:50:26.875Z,22.50
2018-06-17T16:51:26.779Z,28.13
2018-06-17T16:53:19.632Z,28.13
2018-06-17T16:54:19.547Z,39.38
2018-06-17T16:56:12.361Z,16.88
2018-06-17T16:57:12.295Z,16.88
2018-06-17T16:59:05.077Z,22.50
2018-06-17T17:00:05.011Z,16.88
2018-06-17T17:01:57.790Z,16.88
2018-06-17T17:02:57.729Z,16.88
2018-06-17T17:04:50.523Z,16.88
2018-06-17T17:05:50.458Z,16.88
2018-06-17T17:07:43.221Z,22.50
2018-06-17T17:08:43.171Z,22.50
2018-06-17T17:10:35.962Z,22.50
2018-06-17T17:11:35.895Z,22.50
2018-06-17T17:13:28.726Z,22.50
2018-06-17T17:14:28.674Z,33.75
2018-06-17T17:16:21.474Z,28.13
2018-06-17T17:17:21.402Z,22.50
2018-06-17T17:19:14.179Z,22.50
2018-06-17T17:20:14.115Z,22.50
2018-06-17T17:22:06.946Z,16.88
2018-06-17T17:23:06.844Z,22.50
2018-06-17T17:24:59.633Z,16.88
2018-06-17T17:25:59.563Z,16.88
2018-06-17T17:27:52.354Z,16.88
2018-06-17T17:28:52.298Z,16.88
2018-06-17T17:30:45.078Z,11.25
2018-06-17T17:31:45.008Z,11.25
2018-06-17T17:33:37.788Z,11.25
2018-06-17T17:34:37.731Z,11.25
2018-06-17T17:36:30.532Z,11.25
2018-06-17T17:37:30.459Z,11.25
2018-06-17T17:39:23.260Z,11.25
2018-06-17T17:40:23.197Z,11.25
2018-06-17T17:42:16.029Z,11.25
2018-06-17T17:43:15.923Z,11.25
2018-06-17T17:45:08.693Z,11.25
2018-06-17T17:46:08.638Z,11.25
2018-06-17T17:48:01.424Z,11.25
2018-06-17T17:49:01.370Z,11.25
2018-06-17T17:50:54.152Z,11.25
2018-06-17T17:51:54.089Z,11.25
2018-06-17T17:53:46.859Z,11.25
2018-06-17T17:54:46.805Z,11.25
2018-06-17T17:56:39.607Z,22.50
2018-06-17T17:57:39.524Z,16.88
2018-06-17T17:59:32.308Z,11.25
2018-06-17T18:00:32.248Z,11.25
2018-06-17T18:02:25.067Z,22.50
2018-06-17T18:03:24.991Z,16.88
2018-06-17T18:05:17.766Z,11.25
2018-06-17T18:06:17.808Z,11.25
2018-06-17T18:08:10.528Z,11.25
2018-06-17T18:09:10.488Z,11.25
2018-06-17T18:11:03.229Z,16.88
2018-06-17T18:12:03.226Z,11.25
2018-06-17T18:13:56.003Z,16.88
2018-06-17T18:14:55.925Z,11.25
2018-06-17T18:16:48.740Z,16.88
2018-06-17T18:17:48.612Z,16.88
2018-06-17T18:19:41.430Z,28.13
2018-06-17T18:20:41.415Z,33.75
2018-06-17T18:22:34.181Z,22.50
2018-06-17T18:23:34.134Z,22.50
2018-06-17T18:25:26.879Z,28.13
2018-06-17T18:26:26.820Z,28.13
2018-06-17T18:28:19.644Z,16.88